Time;durP1;ratioP1;P1;durP2;ratioP2;P2;SDS_P1;SDS_P2;PMS_P1;PMS_P2;Temp;Humidity;BMP_temperature;BMP_pressure;BME280_temperature;BME280_humidity;BME280_pressure;Samples;Min_cycle;Max_cycle;Signal;HPM_P1;HPM_P2
2022/08/22 00:01:49;;;;;;;2.55;1.80;;;18.80;62.50;;;14.81;89.87;95413.72;4955933;28;20026;-51
2022/08/22 00:05:20;;;;;;;2.70;1.80;;;18.80;62.60;;;14.72;90.83;95410.91;4972939;28;20056;-51
2022/08/22 00:08:48;;;;;;;2.05;1.60;;;18.70;62.70;;;14.68;90.77;95404.53;4958393;28;20113;-43
2022/08/22 00:11:32;;;;;;;2.47;1.88;;;18.60;62.80;;;14.64;90.66;95411.59;4958336;28;20042;-46
2022/08/22 00:14:45;;;;;;;2.33;2.03;;;18.60;63.20;;;14.57;91.31;95409.28;4938982;28;20024;-46
2022/08/22 00:18:15;;;;;;;19.55;2.25;;;18.50;63.20;;;14.60;90.99;95407.09;4972070;28;20069;-49
2022/08/22 00:21:23;;;;;;;3.75;2.00;;;18.50;63.30;;;14.57;90.98;95408.47;4971234;28;20049;-48
2022/08/22 00:24:42;;;;;;;9.82;2.22;;;18.60;63.60;;;14.52;91.23;95405.91;4959631;28;20018;-51
2022/08/22 00:27:25;;;;;;;2.50;2.10;;;18.50;63.30;;;14.51;91.57;95397.06;4940582;28;20029;-47
2022/08/22 00:30:14;;;;;;;3.53;2.03;;;18.50;63.70;;;14.49;92.24;95404.56;4956354;28;20453;-45
2022/08/22 00:33:01;;;;;;;2.08;1.88;;;18.50;63.90;;;14.48;92.82;95404.88;4956097;28;20092;-50
2022/08/22 00:35:47;;;;;;;4.07;2.13;;;18.50;64.10;;;14.48;92.33;95412.91;4940168;28;20030;-48
2022/08/22 00:38:32;;;;;;;2.65;2.38;;;18.50;64.30;;;14.48;92.08;95408.34;4951519;28;20042;-48
2022/08/22 00:41:54;;;;;;;2.97;1.85;;;18.50;64.30;;;14.47;91.86;95409.41;4951281;28;20487;-50
2022/08/22 00:44:57;;;;;;;3.90;1.88;;;18.50;64.40;;;14.43;91.79;95408.41;4959035;28;20041;-47
2022/08/22 00:47:48;;;;;;;2.70;2.10;;;18.50;64.30;;;14.42;92.16;95406.84;4955159;28;20037;-49
2022/08/22 00:51:09;;;;;;;4.03;1.90;;;18.50;64.30;;;14.38;92.77;95411.16;4955605;28;20332;-47
2022/08/22 00:54:37;;;;;;;3.10;1.90;;;18.40;64.30;;;14.38;93.12;95410.38;4954863;28;20389;-46
2022/08/22 00:57:56;;;;;;;3.10;2.30;;;18.40;64.40;;;14.37;93.53;95406.91;4942863;28;20038;-51
2022/08/22 01:00:33;;;;;;;5.93;2.30;;;18.40;64.60;;;14.37;93.48;95406.91;4972698;28;20018;-47
2022/08/22 01:03:43;;;;;;;4.90;2.28;;;18.40;64.60;;;14.37;93.75;95409.59;4970395;28;20033;-48
2022/08/22 01:06:58;;;;;;;4.10;2.10;;;18.40;64.80;;;14.39;94.20;95409.31;4972374;28;20489;-50
2022/08/22 01:09:44;;;;;;;3.15;2.20;;;18.40;64.90;;;14.41;94.13;95404.44;4972017;28;20109;-46
2022/08/22 01:12:56;;;;;;;3.17;2.58;;;18.40;65.20;;;14.44;94.08;95399.28;4970983;28;20042;-50
2022/08/22 01:15:32;;;;;;;3.78;2.17;;;18.40;65.30;;;14.44;93.69;95406.53;4971786;28;20473;-49
2022/08/22 01:18:19;;;;;;;2.67;2.10;;;18.40;65.30;;;14.45;93.42;95403.56;4971757;28;20072;-51
2022/08/22 01:21:51;;;;;;;2.30;1.98;;;18.40;65.50;;;14.41;94.11;95399.84;4954836;28;20113;-45
2022/08/22 01:28:10;;;;;;;2.22;1.80;;;18.40;66.30;;;14.42;94.04;95396.13;4952649;28;20444;-47
2022/08/22 01:31:19;;;;;;;3.67;2.00;;;18.40;65.40;;;14.42;94.00;95404.16;4945188;28;20026;-49
2022/08/22 01:34:50;;;;;;;4.43;2.10;;;18.40;65.40;;;14.43;93.61;95403.06;4969970;28;20037;-45
2022/08/22 01:38:32;;;;;;;3.88;1.95;;;18.30;65.40;;;14.41;94.03;95399.06;4952528;28;20034;-44
2022/08/22 01:42:11;;;;;;;3.42;2.70;;;18.30;65.40;;;14.40;93.63;95400.97;4950111;28;20026;-47
2022/08/22 01:45:11;;;;;;;2.90;2.00;;;18.40;65.70;;;14.39;94.04;95394.03;4950146;28;20042;-50
2022/08/22 01:48:32;;;;;;;4.63;2.08;;;18.40;65.70;;;14.34;94.71;95396.78;4954481;28;20018;-45
2022/08/22 01:51:35;;;;;;;2.47;2.28;;;18.40;65.80;;;14.35;94.14;95401.03;4915286;28;20137;-48
2022/08/22 01:54:35;;;;;;;7.97;2.70;;;18.30;65.80;;;14.30;93.86;95393.88;4934462;28;20132;-46
2022/08/22 01:57:12;;;;;;;3.45;2.53;;;18.30;65.70;;;14.28;94.30;95398.72;4950805;28;20037;-47
2022/08/22 01:59:49;;;;;;;3.17;2.65;;;18.30;65.90;;;14.25;93.94;95399.31;4955089;28;20393;-44
2022/08/22 02:03:09;;;;;;;2.47;2.28;;;18.30;65.90;;;14.22;93.43;95405.25;4953955;28;20018;-46
2022/08/22 02:06:39;;;;;;;3.35;2.33;;;18.20;65.80;;;14.17;94.54;95407.22;4942779;28;20030;-45
2022/08/22 02:10:00;;;;;;;2.50;2.30;;;18.20;65.80;;;14.12;96.20;95400.06;4930866;29;20375;-47
2022/08/22 02:13:05;;;;;;;4.18;2.20;;;18.20;66.10;;;14.11;95.29;95406.50;4945140;28;20047;-44
2022/08/22 02:15:40;;;;;;;6.03;2.40;;;18.10;66.30;;;14.07;95.13;95400.94;4967545;28;20061;-45
2022/08/22 02:18:07;;;;;;;2.75;2.45;;;18.10;66.40;;;14.05;95.48;95397.75;4953695;28;20027;-45
2022/08/22 02:21:07;;;;;;;3.58;2.45;;;18.10;66.30;;;13.99;95.77;95398.91;4951932;29;20544;-46
2022/08/22 02:24:15;;;;;;;3.97;2.42;;;18.10;66.80;;;13.96;96.15;95399.47;4944105;28;20049;-44
2022/08/22 02:27:32;;;;;;;5.72;2.35;;;18.00;66.70;;;13.95;96.36;95397.13;4939628;28;20034;-48
2022/08/22 02:30:08;;;;;;;3.80;2.42;;;18.00;67.00;;;13.94;95.93;95390.94;4970930;28;20389;-45
2022/08/22 02:32:40;;;;;;;5.82;2.78;;;18.00;67.00;;;13.90;96.48;95392.63;4970741;28;20029;-47
2022/08/22 02:35:14;;;;;;;5.60;2.58;;;18.00;67.10;;;13.85;96.89;95398.84;4970198;28;20178;-45
2022/08/22 02:37:58;;;;;;;5.75;2.45;;;17.90;67.20;;;13.81;96.86;95389.78;4971235;28;20030;-45
2022/08/22 02:41:41;;;;;;;4.43;2.65;;;17.80;67.30;;;13.80;96.74;95388.19;4953976;28;20030;-46
2022/08/22 02:44:49;;;;;;;2.85;2.55;;;17.80;67.30;;;13.76;96.85;95392.53;4939379;28;20034;-44
2022/08/22 02:48:00;;;;;;;5.72;2.72;;;17.80;67.30;;;13.71;97.06;95384.56;4970966;28;20034;-45
2022/08/22 02:51:17;;;;;;;4.10;2.90;;;17.80;67.40;;;13.70;96.83;95382.19;4985869;28;20038;-45
2022/08/22 02:54:50;;;;;;;3.35;2.58;;;17.70;67.40;;;13.65;96.58;95385.72;4969415;28;20029;-45
2022/08/22 02:57:35;;;;;;;5.22;2.67;;;17.70;67.40;;;13.59;96.76;95378.84;4944672;28;20104;-46
2022/08/22 03:00:25;;;;;;;3.55;2.70;;;17.60;67.50;;;13.53;96.92;95386.16;4953892;28;20145;-46
2022/08/22 03:03:20;;;;;;;3.95;2.40;;;17.60;67.60;;;13.48;97.10;95386.22;4957925;28;20057;-46
2022/08/22 03:06:06;;;;;;;3.00;2.45;;;17.60;67.70;;;13.44;96.88;95382.50;4974806;28;20030;-44
2022/08/22 03:09:18;;;;;;;6.47;2.60;;;17.50;67.60;;;13.39;97.03;95378.03;4974472;28;20033;-47
2022/08/22 03:12:13;;;;;;;3.83;2.67;;;17.50;68.30;;;13.33;97.10;95381.84;4958899;28;20529;-45
2022/08/22 03:15:09;;;;;;;4.03;2.83;;;17.40;67.70;;;13.26;97.07;95381.41;4957689;28;20133;-47
2022/08/22 03:18:31;;;;;;;3.30;2.72;;;17.40;67.80;;;13.22;97.71;95379.56;4928877;28;20030;-45
2022/08/22 03:21:53;;;;;;;3.33;2.80;;;17.40;67.80;;;13.18;97.86;95377.44;4942448;28;20038;-45
2022/08/22 03:25:00;;;;;;;3.05;2.20;;;17.30;68.10;;;13.16;98.11;95378.81;4968726;28;20449;-43
2022/08/22 03:28:25;;;;;;;3.53;2.67;;;17.30;68.10;;;13.14;98.06;95372.97;4957299;28;20112;-50
2022/08/22 03:31:24;;;;;;;3.70;2.90;;;17.20;68.10;;;13.09;97.99;95378.38;4956471;28;20528;-43
2022/08/22 03:34:25;;;;;;;3.20;2.42;;;17.10;68.10;;;13.04;97.93;95379.22;4956548;28;20116;-44
2022/08/22 03:37:32;;;;;;;3.47;2.83;;;17.10;68.10;;;12.95;97.93;95373.72;4957596;28;20030;-43
2022/08/22 03:40:45;;;;;;;5.93;3.10;;;17.10;68.10;;;12.88;98.10;95372.44;4970251;28;20126;-46
2022/08/22 03:44:40;;;;;;;4.40;2.97;;;17.00;68.20;;;12.81;98.48;95367.44;4959869;28;20026;-48
2022/08/22 03:47:59;;;;;;;4.93;3.15;;;17.00;68.20;;;12.76;98.54;95372.84;4914042;28;20404;-44
2022/08/22 03:51:04;;;;;;;4.13;3.20;;;16.90;68.30;;;12.73;98.63;95376.88;4956045;28;20034;-43
2022/08/22 03:54:32;;;;;;;4.35;2.67;;;16.80;68.50;;;12.70;99.89;95374.78;4973175;28;20049;-43
2022/08/22 03:57:47;;;;;;;3.90;2.60;;;16.80;68.50;;;12.71;100.00;95372.88;4971249;28;20034;-45
2022/08/22 04:01:06;;;;;;;5.90;2.90;;;16.80;68.80;;;12.69;100.00;95373.19;4972720;28;20053;-43
2022/08/22 04:04:34;;;;;;;11.70;3.00;;;16.80;68.90;;;12.66;99.99;95371.06;4972793;28;20060;-44
2022/08/22 04:07:52;;;;;;;8.77;3.03;;;16.70;68.90;;;12.65;99.72;95374.03;4973002;28;20053;-42
2022/08/22 04:11:20;;;;;;;3.55;2.90;;;16.70;68.90;;;12.58;98.96;95369.00;4972880;28;20034;-42
2022/08/22 04:15:03;;;;;;;5.13;3.10;;;16.60;68.90;;;12.50;99.39;95366.94;4954350;28;20026;-42
2022/08/22 04:18:00;;;;;;;3.72;3.03;;;16.60;68.90;;;12.46;99.21;95368.59;4965871;28;20064;-42
2022/08/22 04:21:21;;;;;;;7.65;3.45;;;16.60;68.90;;;12.41;98.91;95372.13;4953603;28;20053;-42
2022/08/22 04:24:34;;;;;;;5.03;3.00;;;16.50;69.10;;;12.36;99.41;95371.34;4963718;28;20026;-43
2022/08/22 04:27:35;;;;;;;5.13;3.05;;;16.50;69.00;;;12.33;99.14;95367.38;4952840;28;20038;-43
2022/08/22 04:31:09;;;;;;;5.07;3.00;;;16.40;69.00;;;12.27;100.00;95371.94;4961945;28;20034;-42
2022/08/22 04:34:14;;;;;;;6.35;3.53;;;16.40;68.90;;;12.28;99.86;95372.72;4952860;28;20022;-42
2022/08/22 04:37:13;;;;;;;6.95;3.97;;;16.40;69.90;;;12.27;100.00;95376.50;4943519;28;20508;-44
2022/08/22 04:40:32;;;;;;;5.82;2.92;;;16.40;69.20;;;12.24;99.78;95375.19;4935457;28;20034;-43
2022/08/22 04:43:43;;;;;;;5.60;3.35;;;16.40;69.30;;;12.22;100.00;95373.84;4956028;28;20030;-45
2022/08/22 04:46:44;;;;;;;4.97;3.20;;;16.40;69.30;;;12.21;100.00;95382.94;4955179;28;20476;-45
2022/08/22 04:49:49;;;;;;;6.63;3.42;;;16.40;69.30;;;12.22;100.00;95390.69;4971217;28;20034;-43
2022/08/22 04:53:09;;;;;;;6.07;3.20;;;16.40;69.40;;;12.24;100.00;95380.50;4970420;28;20108;-42
2022/08/22 04:56:24;;;;;;;7.40;3.17;;;16.40;69.60;;;12.25;100.00;95394.66;4957699;28;20026;-45
2022/08/22 04:59:10;;;;;;;6.68;3.70;;;16.40;69.50;;;12.24;100.00;95393.88;4941411;28;20034;-43
2022/08/22 05:01:53;;;;;;;4.47;3.53;;;16.40;69.70;;;12.25;100.00;95398.16;4977448;23;20098;-44
2022/08/22 05:04:59;;;;;;;4.72;3.70;;;16.40;70.50;;;12.42;100.00;95402.28;4951785;28;20384;-44
2022/08/22 05:08:00;;;;;;;3.90;3.40;;;16.50;69.80;;;12.70;100.00;95406.84;4946435;28;20018;-44
2022/08/22 05:10:38;;;;;;;5.25;3.40;;;16.60;69.80;;;12.95;100.00;95400.44;4978948;28;20069;-43
2022/08/22 05:13:23;;;;;;;3.40;2.92;;;16.70;70.00;;;13.21;100.00;95402.84;4973990;28;20075;-45
2022/08/22 05:16:02;;;;;;;5.18;2.60;;;16.80;69.90;;;13.41;100.00;95413.34;4948007;28;20144;-46
2022/08/22 05:19:16;;;;;;;3.72;2.50;;;17.00;70.00;;;13.70;100.00;95420.47;4939317;28;20049;-45
2022/08/22 05:21:49;;;;;;;3.90;2.78;;;17.20;69.70;;;13.93;100.00;95418.00;4922694;28;20150;-44
2022/08/22 05:24:32;;;;;;;4.15;2.55;;;17.40;69.60;;;14.07;97.90;95410.84;4953916;28;20122;-46
2022/08/22 05:27:31;;;;;;;2.58;2.20;;;17.60;69.50;;;14.23;94.58;95414.91;4948207;28;20045;-46
2022/08/22 05:30:23;;;;;;;3.85;2.10;;;17.80;69.20;;;14.48;94.02;95416.38;4944996;28;20038;-45
2022/08/22 05:33:18;;;;;;;5.80;2.27;;;18.10;68.70;;;14.74;94.41;95422.13;4953324;28;20026;-45
2022/08/22 05:36:15;;;;;;;3.42;2.22;;;18.40;68.30;;;15.09;92.11;95409.19;4964699;28;20428;-45
2022/08/22 05:38:57;;;;;;;3.00;2.38;;;18.70;67.90;;;15.44;91.23;95409.56;4938875;28;20083;-46
2022/08/22 05:41:38;;;;;;;5.55;2.10;;;19.00;67.50;;;15.76;89.26;95410.56;4963374;28;20400;-45
2022/08/22 05:44:39;;;;;;;4.25;2.30;;;19.30;67.10;;;16.10;87.17;95412.78;4942806;28;20140;-45
2022/08/22 05:47:31;;;;;;;4.32;1.98;;;19.70;66.60;;;16.43;83.79;95414.16;4941768;28;20022;-44
2022/08/22 05:50:18;;;;;;;2.10;1.90;;;20.00;66.00;;;16.75;81.86;95411.50;4974340;28;20059;-45
2022/08/22 05:53:07;;;;;;;2.60;1.70;;;20.40;65.50;;;17.13;80.66;95414.56;4960334;28;20362;-45
2022/08/22 05:56:01;;;;;;;2.35;1.70;;;20.70;64.90;;;17.54;77.89;95416.94;4959091;28;20099;-45
2022/08/22 05:59:01;;;;;;;2.90;1.65;;;21.10;64.10;;;17.93;76.51;95420.72;4971774;28;20114;-48
2022/08/22 06:02:10;;;;;;;3.65;1.67;;;21.60;63.50;;;18.36;74.41;95424.53;4963041;28;20049;-47
2022/08/22 06:04:50;;;;;;;2.15;1.60;;;22.10;62.60;;;18.72;73.58;95426.91;4953421;28;20033;-48
2022/08/22 06:07:32;;;;;;;2.03;1.83;;;22.50;61.70;;;18.98;70.92;95426.06;4951415;28;20027;-44
2022/08/22 06:10:30;;;;;;;3.45;1.90;;;22.90;60.50;;;19.12;69.70;95427.47;4965414;28;20045;-45
2022/08/22 06:13:18;;;;;;;2.30;1.95;;;23.30;59.70;;;19.32;69.22;95433.28;4950550;28;20027;-47
2022/08/22 06:16:16;;;;;;;2.95;1.55;;;23.60;58.90;;;19.48;67.36;95428.13;4949037;28;20026;-46
2022/08/22 06:18:46;;;;;;;4.65;2.13;;;23.90;58.20;;;19.61;67.49;95432.50;4951982;28;20057;-45
2022/08/22 06:21:37;;;;;;;4.03;2.10;;;24.10;57.50;;;19.72;65.85;95438.38;4955324;28;20121;-51
2022/08/22 06:24:20;;;;;;;1.88;1.70;;;24.40;57.00;;;19.81;65.48;95437.22;4955020;28;20026;-44
2022/08/22 06:26:53;;;;;;;3.22;2.28;;;24.50;56.20;;;20.03;65.85;95438.03;4949278;28;20050;-49
2022/08/22 06:29:41;;;;;;;4.05;1.98;;;24.80;55.80;;;20.22;64.91;95443.78;4950566;28;20105;-47
2022/08/22 06:32:40;;;;;;;2.28;1.90;;;25.10;55.30;;;20.46;63.40;95443.09;4961705;28;20484;-48
2022/08/22 06:39:13;;;;;;;1.70;1.60;;;25.60;54.30;;;21.21;62.02;95439.56;4952978;28;20117;-47
2022/08/22 06:42:27;;;;;;;2.95;1.80;;;26.00;53.90;;;21.32;60.63;95439.94;4963376;28;20365;-45
2022/08/22 06:45:08;;;;;;;1.80;1.70;;;26.40;53.40;;;21.45;60.04;95445.03;4969468;28;20152;-47
2022/08/22 06:48:18;;;;;;;3.08;1.90;;;26.60;52.40;;;21.66;57.94;95444.16;4949060;28;20027;-45
2022/08/22 06:50:55;;;;;;;5.03;2.00;;;26.90;51.80;;;21.93;58.31;95448.09;4955098;28;20096;-44
2022/08/22 06:53:45;;;;;;;5.63;1.90;;;27.20;51.10;;;22.15;57.19;95444.91;4955845;28;20022;-49
2022/08/22 06:56:19;;;;;;;4.53;1.80;;;27.40;50.50;;;22.33;56.55;95442.75;4971150;28;20444;-46
2022/08/22 06:58:53;;;;;;;2.17;1.90;;;27.70;49.90;;;22.50;56.09;95443.59;4966088;28;20030;-51
2022/08/22 07:01:40;;;;;;;3.70;1.90;;;28.00;49.30;;;22.72;54.44;95442.28;4971160;28;20046;-45
2022/08/22 07:04:10;;;;;;;2.88;1.90;;;28.30;48.50;;;22.97;54.33;95449.25;4948197;28;20022;-46
2022/08/22 07:06:49;;;;;;;4.45;2.08;;;28.60;48.00;;;23.31;53.49;95450.50;4957147;28;20054;-45
2022/08/22 07:09:39;;;;;;;2.30;2.10;;;28.80;47.20;;;23.47;52.66;95457.88;4955202;28;20408;-46
2022/08/22 07:12:21;;;;;;;2.47;1.90;;;29.10;46.90;;;23.43;53.70;95457.78;4953790;28;20477;-46
2022/08/22 07:14:52;;;;;;;;;;;29.30;46.00;;;23.38;53.71;95455.34;4957727;28;20488;-45
2022/08/22 07:17:31;;;;;;;4.30;2.10;;;29.30;46.60;;;23.43;52.78;95457.78;4973017;28;19944;-45
2022/08/22 07:20:35;;;;;;;3.78;1.95;;;29.50;45.50;;;23.63;53.17;95457.88;4956667;28;20513;-47
2022/08/22 07:23:22;;;;;;;2.45;1.90;;;29.70;45.40;;;23.89;52.20;95465.56;4973578;28;20471;-46
2022/08/22 07:26:26;;;;;;;2.80;2.00;;;29.90;44.80;;;23.93;51.89;95461.75;4958186;28;20507;-47
2022/08/22 07:29:45;;;;;;;2.38;2.17;;;30.20;44.50;;;23.99;51.71;95451.41;4957784;28;20077;-46
2022/08/22 07:32:49;;;;;;;2.30;2.10;;;30.50;43.90;;;24.25;51.25;95450.81;4956040;28;20041;-48
2022/08/22 07:35:49;;;;;;;2.38;2.10;;;30.60;43.20;;;24.58;50.13;95455.84;4959785;28;20117;-46
2022/08/22 07:39:08;;;;;;;4.65;2.63;;;30.80;42.80;;;24.93;49.31;95463.16;4957528;28;20451;-45
2022/08/22 07:42:38;;;;;;;2.55;2.15;;;31.10;42.60;;;25.35;48.69;95465.94;4973817;28;20034;-45
2022/08/22 07:45:40;;;;;;;5.50;2.20;;;31.40;42.20;;;25.52;48.62;95466.59;4967342;28;20038;-46
2022/08/22 07:48:33;;;;;;;2.55;2.35;;;31.70;41.70;;;25.74;47.67;95470.47;4992483;28;20045;-46
2022/08/22 07:51:21;;;;;;;4.22;3.03;;;31.90;41.30;;;25.96;46.65;95460.72;4992810;28;20523;-45
2022/08/22 07:54:15;;;;;;;2.80;1.92;;;32.10;40.60;;;26.02;47.19;95454.56;4959452;28;20060;-45
2022/08/22 07:57:06;;;;;;;2.33;2.13;;;32.30;40.20;;;25.95;47.22;95457.19;4959545;28;20111;-46
2022/08/22 07:59:49;;;;;;;2.97;2.03;;;32.40;39.90;;;25.83;47.35;95457.41;4975954;28;20044;-46
2022/08/22 08:02:24;;;;;;;2.55;2.28;;;32.50;39.30;;;25.91;47.42;95453.63;4976243;28;20037;-46
2022/08/22 08:04:59;;;;;;;3.00;2.35;;;32.70;39.10;;;26.09;46.61;95456.63;4975490;28;20052;-45
2022/08/22 08:07:31;;;;;;;3.30;2.10;;;32.80;38.70;;;26.37;45.97;95450.00;4975671;28;20088;-46
2022/08/22 08:10:41;;;;;;;2.67;2.47;;;32.90;38.40;;;26.55;45.94;95447.53;4959051;28;20385;-47
2022/08/22 08:13:27;;;;;;;2.95;2.50;;;33.00;38.20;;;26.61;44.40;95451.53;4977556;28;20036;-49
2022/08/22 08:15:53;;;;;;;3.13;2.30;;;33.20;37.70;;;26.84;44.60;95445.94;4965932;28;20432;-49
2022/08/22 08:18:39;;;;;;;3.30;2.78;;;33.40;37.60;;;27.03;44.19;95455.91;4939634;28;20497;-46
2022/08/22 08:21:14;;;;;;;2.78;2.58;;;33.50;37.30;;;27.31;43.22;95452.72;4955889;28;20029;-47
2022/08/22 08:23:46;;;;;;;4.63;2.90;;;33.80;36.70;;;27.50;43.16;95463.44;4956414;28;20026;-49
2022/08/22 08:26:33;;;;;;;2.87;2.67;;;34.00;36.40;;;27.63;42.96;95469.44;4955369;28;20022;-47
2022/08/22 08:29:06;;;;;;;3.70;3.00;;;34.30;36.20;;;27.55;42.25;95463.13;4956196;28;20026;-49
2022/08/22 08:31:41;;;;;;;3.38;3.08;;;34.50;35.50;;;27.53;42.53;95459.97;4955874;28;20030;-49
2022/08/22 08:34:23;;;;;;;3.30;3.00;;;34.60;35.20;;;27.60;42.10;95456.50;4955319;28;20056;-46
2022/08/22 08:37:15;;;;;;;;;;;34.80;34.70;;;27.95;41.50;95456.03;4940287;28;20049;-46
2022/08/22 08:39:54;;;;;;;3.17;2.88;;;34.90;35.50;;;28.07;41.95;95452.22;4956059;28;19909;-47
2022/08/22 08:43:37;;;;;;;3.42;2.90;;;35.20;34.70;;;28.49;41.52;95451.75;4955619;28;20269;-46
2022/08/22 08:47:18;;;;;;;5.00;3.47;;;35.40;34.70;;;28.77;39.79;95450.31;4972551;28;20033;-49
2022/08/22 08:50:42;;;;;;;5.07;3.33;;;35.70;34.40;;;28.85;39.54;95451.09;4950471;28;20035;-46
2022/08/22 08:53:51;;;;;;;3.45;3.20;;;35.90;34.00;;;29.06;39.83;95453.94;4950601;28;20026;-46
2022/08/22 08:56:58;;;;;;;3.88;3.58;;;36.00;33.30;;;29.56;39.23;95448.56;4950710;28;20034;-48
2022/08/22 09:00:13;;;;;;;3.97;3.58;;;36.10;33.20;;;29.79;38.79;95450.19;4950312;28;20030;-46
2022/08/22 09:03:41;;;;;;;3.05;2.80;;;36.30;33.10;;;30.12;38.52;95449.78;4950383;28;20042;-46
2022/08/22 09:07:03;;;;;;;3.35;2.92;;;36.40;33.30;;;30.09;38.19;95445.06;4950747;28;20564;-50
2022/08/22 09:10:03;;;;;;;3.78;2.92;;;36.60;32.50;;;30.09;37.32;95450.56;4934498;28;20034;-46
2022/08/22 09:12:51;;;;;;;3.20;2.90;;;36.70;32.20;;;29.88;38.22;95443.13;4949989;28;20038;-49
2022/08/22 09:15:44;;;;;;;3.28;2.85;;;36.70;31.90;;;29.87;37.78;95455.28;4950362;28;20042;-47
2022/08/22 09:18:29;;;;;;;4.43;2.90;;;36.60;31.60;;;30.04;37.76;95445.47;4950548;28;20023;-46
2022/08/22 09:22:17;;;;;;;3.58;3.28;;;36.60;31.40;;;29.80;38.17;95438.00;4963472;28;20485;-46
2022/08/22 09:24:57;;;;;;;3.17;2.67;;;36.60;31.40;;;29.71;37.74;95428.22;4971852;28;20114;-46
2022/08/22 09:28:18;;;;;;;3.22;2.90;;;36.60;31.00;;;29.49;37.94;95427.41;4971790;28;20099;-46
2022/08/22 09:31:40;;;;;;;5.93;3.13;;;36.60;31.10;;;29.54;37.74;95436.41;4954096;28;20065;-46
2022/08/22 09:34:52;;;;;;;5.40;3.22;;;36.40;31.00;;;29.84;38.00;95430.59;4940226;28;20422;-46
2022/08/22 09:38:17;;;;;;;3.83;2.83;;;36.40;31.00;;;29.56;38.51;95431.31;4971500;28;20413;-46
2022/08/22 09:41:29;;;;;;;3.28;2.90;;;36.50;31.00;;;29.00;38.43;95428.84;4953410;28;20308;-47
2022/08/22 09:44:25;;;;;;;3.60;3.28;;;36.40;30.50;;;29.09;38.97;95430.47;4954110;28;20022;-46
2022/08/22 09:47:30;;;;;;;4.03;3.10;;;36.30;30.70;;;29.62;37.27;95429.78;4971397;28;20033;-46
2022/08/22 09:50:29;;;;;;;4.68;3.10;;;36.30;30.60;;;30.14;37.61;95425.44;4967135;28;20440;-46
2022/08/22 09:53:38;;;;;;;3.78;3.42;;;36.50;30.80;;;30.20;37.11;95426.63;4964925;28;20049;-47
2022/08/22 09:56:33;;;;;;;3.95;3.58;;;36.60;30.60;;;30.15;37.79;95429.75;4969432;28;20510;-46
2022/08/22 09:59:30;;;;;;;3.83;3.42;;;36.70;30.60;;;30.33;36.01;95423.47;4960642;28;20030;-49
2022/08/22 10:02:26;;;;;;;4.28;3.60;;;36.80;30.30;;;30.38;37.47;95423.06;4965753;28;20568;-46
2022/08/22 10:06:01;;;;;;;6.63;3.92;;;37.00;30.20;;;30.64;37.25;95419.81;4963110;28;20038;-46
2022/08/22 10:09:16;;;;;;;5.38;4.10;;;37.10;30.10;;;30.28;37.14;95426.63;4938031;28;20433;-47
2022/08/22 10:12:09;;;;;;;5.88;3.90;;;37.20;30.00;;;30.06;36.53;95418.41;4932232;28;20161;-46
2022/08/22 10:15:31;;;;;;;5.03;3.80;;;37.10;29.80;;;29.72;37.68;95424.28;4934916;28;20045;-46
2022/08/22 10:18:42;;;;;;;7.28;4.60;;;37.10;29.70;;;29.49;38.91;95418.41;4971257;28;20493;-46
2022/08/22 10:21:40;;;;;;;5.93;3.92;;;37.00;29.60;;;29.74;35.95;95418.41;4972011;28;20380;-47
2022/08/22 10:24:34;;;;;;;7.25;3.60;;;36.90;29.50;;;30.22;37.96;95414.47;4960714;28;20133;-47
2022/08/22 10:27:17;;;;;;;3.90;3.30;;;36.90;29.80;;;30.70;37.80;95427.66;4967349;28;20072;-47
2022/08/22 10:30:33;;;;;;;4.57;3.97;;;37.10;30.00;;;30.78;34.23;95421.78;4970341;28;20057;-46
2022/08/22 10:33:46;;;;;;;7.53;3.15;;;37.30;29.50;;;31.01;34.07;95417.75;4930997;28;20067;-46
2022/08/22 10:36:51;;;;;;;4.15;3.40;;;37.50;29.30;;;31.14;33.71;95426.31;4962902;28;20144;-46
2022/08/22 10:39:43;;;;;;;4.97;3.90;;;37.70;29.30;;;30.38;32.85;95423.06;4993009;28;20036;-46
2022/08/22 10:42:40;;;;;;;3.75;3.38;;;37.70;28.10;;;30.52;32.25;95416.72;4977311;28;20029;-46
2022/08/22 10:45:30;;;;;;;4.35;3.50;;;37.60;27.80;;;30.11;33.98;95422.69;4977687;28;20387;-46
2022/08/22 10:47:56;;;;;;;4.38;3.47;;;37.60;27.40;;;30.20;31.34;95423.09;4976775;28;20026;-47
2022/08/22 10:50:49;;;;;;;4.03;3.53;;;37.60;27.20;;;30.66;31.11;95422.97;4976943;28;20392;-46
2022/08/22 10:54:11;;;;;;;3.75;3.17;;;37.60;27.10;;;30.75;30.74;95424.53;4960419;28;20018;-46
2022/08/22 10:57:23;;;;;;;5.60;3.47;;;37.70;27.10;;;30.90;31.42;95428.81;4994139;28;20037;-46
2022/08/22 11:00:18;;;;;;;;;;;37.80;27.10;;;30.55;28.59;95437.91;4978747;28;20034;-46
2022/08/22 11:03:23;;;;;;;5.35;4.10;;;37.90;27.40;;;30.19;32.40;95422.31;4986172;23;20032;-46
2022/08/22 11:06:00;;;;;;;4.28;3.75;;;37.90;26.80;;;30.25;30.59;95419.97;4994397;28;20029;-46
2022/08/22 11:09:05;;;;;;;4.70;3.30;;;37.90;26.20;;;30.17;29.57;95424.63;4977604;28;20022;-47
2022/08/22 11:12:02;;;;;;;4.68;3.10;;;37.70;26.10;;;30.33;30.84;95417.97;4998821;28;20056;-46
2022/08/22 11:15:07;;;;;;;4.90;3.53;;;37.20;26.30;;;30.04;31.13;95419.97;5012479;28;20391;-45
2022/08/22 11:18:15;;;;;;;4.70;3.70;;;36.60;26.40;;;30.27;29.84;95414.84;4987029;28;20554;-44
2022/08/22 11:20:58;;;;;;;3.60;3.30;;;36.60;26.70;;;30.64;32.18;95414.34;4993671;28;20025;-51
2022/08/22 11:23:55;;;;;;;4.75;3.90;;;37.00;26.60;;;29.76;29.42;95415.28;4992797;28;20384;-48
2022/08/22 11:26:52;;;;;;;3.90;3.50;;;37.30;25.70;;;29.48;30.34;95411.31;4977272;28;20104;-44
2022/08/22 11:30:16;;;;;;;4.20;3.90;;;37.50;25.30;;;30.23;30.82;95414.06;4992038;28;20392;-46
2022/08/22 11:33:21;;;;;;;4.22;3.83;;;37.50;25.30;;;30.28;29.98;95413.69;4992657;28;20120;-46
2022/08/22 11:36:15;;;;;;;5.13;4.05;;;37.70;25.50;;;30.04;30.72;95420.75;4993232;28;20026;-46
2022/08/22 11:39:10;;;;;;;3.97;3.38;;;37.60;25.50;;;30.05;31.99;95414.06;4993057;28;20040;-52
2022/08/22 11:42:30;;;;;;;4.13;3.45;;;37.80;25.40;;;30.49;29.64;95409.28;4991604;28;20025;-45
2022/08/22 11:45:04;;;;;;;3.70;3.40;;;38.00;25.20;;;30.70;28.46;95400.97;4960489;28;20366;-45
2022/08/22 11:47:46;;;;;;;4.75;3.92;;;38.20;24.60;;;30.55;29.44;95399.44;4985282;28;20045;-48
2022/08/22 11:50:51;;;;;;;5.10;4.22;;;38.60;24.60;;;30.49;29.21;95410.06;4985719;28;20035;-45
2022/08/22 11:54:35;;;;;;;3.97;3.58;;;38.80;24.50;;;30.70;28.01;95411.19;4973489;28;20014;-52
2022/08/22 11:57:08;;;;;;;3.85;3.40;;;39.10;24.40;;;29.50;30.47;95398.78;4981790;28;20034;-44
2022/08/22 12:00:11;;;;;;;3.95;2.90;;;38.50;24.20;;;29.01;31.56;95392.03;4983331;28;20109;-46
2022/08/22 12:03:47;;;;;;;5.15;3.30;;;37.50;24.50;;;28.81;32.26;95397.06;4988039;28;20048;-44
2022/08/22 12:06:37;;;;;;;3.65;3.30;;;37.10;24.80;;;28.88;31.71;95384.56;4957296;28;20029;-48
2022/08/22 12:09:36;;;;;;;3.65;3.35;;;37.20;24.90;;;29.01;30.32;95388.53;4986116;28;20017;-51
2022/08/22 12:12:23;;;;;;;5.03;3.92;;;37.30;24.70;;;29.04;30.15;95376.78;4966880;28;20037;-45
2022/08/22 12:15:58;;;;;;;4.28;3.25;;;37.40;24.40;;;29.58;27.58;95376.81;4993695;28;20051;-44
2022/08/22 12:18:49;;;;;;;4.65;3.30;;;37.50;24.30;;;30.27;26.68;95375.59;4986649;28;20030;-46
2022/08/22 12:21:36;;;;;;;3.67;3.33;;;37.80;24.20;;;30.56;27.97;95370.81;4986169;28;20121;-51
2022/08/22 12:24:51;;;;;;;4.20;3.63;;;38.20;24.00;;;30.46;26.20;95374.34;4989666;28;20354;-49
2022/08/22 12:28:57;;;;;;;3.88;3.58;;;38.60;23.80;;;30.37;27.92;95378.34;4970680;28;20034;-48
2022/08/22 12:32:23;;;;;;;3.90;3.50;;;38.80;23.70;;;30.38;27.12;95377.16;4926462;28;20034;-48
2022/08/22 12:35:43;;;;;;;5.05;3.50;;;38.90;23.30;;;30.76;27.82;95376.59;4945871;28;20133;-51
2022/08/22 12:38:48;;;;;;;4.15;3.85;;;39.00;23.40;;;31.39;26.55;95377.44;4935435;28;20030;-45
2022/08/22 12:42:29;;;;;;;3.78;3.38;;;39.20;23.10;;;31.83;26.03;95373.16;4946773;28;20042;-44
2022/08/22 12:46:17;;;;;;;4.72;3.80;;;39.50;23.20;;;31.14;27.53;95368.56;4933353;28;20033;-47
2022/08/22 12:49:49;;;;;;;5.03;4.00;;;39.80;23.00;;;31.18;27.66;95367.34;4955448;28;20129;-46
2022/08/22 12:52:54;;;;;;;4.90;3.70;;;39.70;22.90;;;30.61;27.46;95364.88;4919407;28;20073;-45